Weather at UT Southwestern Medical Center Heliport

Public forecast

Using degrees Fahrenheit for public forecast. Weather courtesy of forecast.io.

Closest aviation weather report (METAR) to UT Southwestern Medical Center Heliport

Closest report is Dallas Love Field, 1.6 nm (3.0 km) N.

2024/05/30 21:53 (retrieved 11 minutes ago)

KDAL 302153Z 07005KT 10SM FEW013 BKN110 OVC250 20/19 A2983 RMK AO2 PK WND 13034/2117 SLP095 T02000189

Closest aviation forecast (TAF) to UT Southwestern Medical Center Heliport

Closest forecast is Dallas Love Field, 1.6 nm (3.0 km) N.

2024/05/30 21:03 Ammendment (retrieved 1 hour ago)

TAF AMD KDAL 302059Z 3021/3118 06012KT P6SM VCSH BKN040 OVC090 FM310000 12008KT P6SM BKN025 FM310500 15008KT P6SM VCTS OVC015CB TEMPO 3106/3110 27025G35KT 2SM +TSRA BKN010CB FM311000 13008KT 6SM -SHRA BR OVC025 FM311600 21007KT P6SM OVC035